FIN26J EFHK-EDDH
Flight info
| Callsign | FIN26J |
|---|---|
| Flight time | N/A |
| Altitude | 38000 |
| Route | NUNTO Y369 REKDO DCT KOSKA DCT GIMRU T503 MICOS/N0387F280 N850 BOGMU BOGMU5A |
| Aircraft | A319/M-SDE3FGHIRWY/LB1 |
Departure
| Time | 2026-05-07 18:20 |
|---|---|
| Airport | Helsinki Vantaa Airport (EFHK) |
Arrival
| Time | N/A |
|---|---|
| Airport | Hamburg Helmut Schmidt Airport (EDDH) |
| Time | Latitude | Longitude | Altitude | Speed | Heading |
|---|---|---|---|---|---|
| 2026-05-07 17:52 | 60.31802 | 24.96390 | 187 ft | 0 kts | 136° |
| 2026-05-07 18:05 | 60.31812 | 24.96373 | 187 ft | 2 kts | 151° |
| 2026-05-07 18:05 | 60.31826 | 24.96361 | 187 ft | 2 kts | 164° |
| 2026-05-07 18:06 | 60.31841 | 24.96356 | 187 ft | 2 kts | 179° |
| 2026-05-07 18:06 | 60.31856 | 24.96358 | 187 ft | 2 kts | 193° |
| 2026-05-07 18:06 | 60.31870 | 24.96369 | 187 ft | 2 kts | 208° |
| 2026-05-07 18:06 | 60.31883 | 24.96386 | 187 ft | 2 kts | 223° |
| 2026-05-07 18:07 | 60.31891 | 24.96402 | 187 ft | 0 kts | 230° |
| 2026-05-07 18:07 | 60.31891 | 24.96405 | 187 ft | 0 kts | 230° |
| 2026-05-07 18:07 | 60.31891 | 24.96404 | 187 ft | 0 kts | 230° |
| 2026-05-07 18:09 | 60.31888 | 24.96397 | 187 ft | 1 kts | 230° |
| 2026-05-07 18:09 | 60.31876 | 24.96370 | 187 ft | 3 kts | 229° |
| 2026-05-07 18:10 | 60.31856 | 24.96304 | 187 ft | 7 kts | 249° |
| 2026-05-07 18:10 | 60.31855 | 24.96184 | 187 ft | 8 kts | 281° |
| 2026-05-07 18:10 | 60.31898 | 24.96081 | 187 ft | 10 kts | 316° |
| 2026-05-07 18:10 | 60.31956 | 24.95975 | 187 ft | 11 kts | 317° |
| 2026-05-07 18:11 | 60.31965 | 24.95958 | 187 ft | 0 kts | 319° |
| 2026-05-07 18:12 | 60.31973 | 24.95943 | 187 ft | 3 kts | 319° |
| 2026-05-07 18:12 | 60.32003 | 24.95890 | 187 ft | 7 kts | 318° |
| 2026-05-07 18:12 | 60.32053 | 24.95799 | 187 ft | 12 kts | 317° |
| 2026-05-07 18:12 | 60.32120 | 24.95670 | 187 ft | 13 kts | 317° |
| 2026-05-07 18:13 | 60.32195 | 24.95533 | 187 ft | 15 kts | 316° |
| 2026-05-07 18:13 | 60.32277 | 24.95382 | 187 ft | 16 kts | 317° |
| 2026-05-07 18:13 | 60.32372 | 24.95252 | 187 ft | 16 kts | 342° |
| 2026-05-07 18:13 | 60.32485 | 24.95175 | 187 ft | 17 kts | 341° |
| 2026-05-07 18:14 | 60.32603 | 24.95099 | 187 ft | 18 kts | 342° |
| 2026-05-07 18:14 | 60.32726 | 24.95020 | 187 ft | 18 kts | 343° |
| 2026-05-07 18:14 | 60.32851 | 24.94940 | 187 ft | 16 kts | 339° |
| 2026-05-07 18:14 | 60.32938 | 24.94830 | 187 ft | 12 kts | 317° |
| 2026-05-07 18:15 | 60.32998 | 24.94721 | 187 ft | 12 kts | 317° |
| 2026-05-07 18:15 | 60.33046 | 24.94628 | 187 ft | 8 kts | 318° |
| 2026-05-07 18:15 | 60.33057 | 24.94609 | 187 ft | 0 kts | 316° |
| 2026-05-07 18:17 | 60.33058 | 24.94607 | 187 ft | 0 kts | 316° |
| 2026-05-07 18:17 | 60.33063 | 24.94597 | 187 ft | 0 kts | 316° |
| 2026-05-07 18:17 | 60.33064 | 24.94596 | 187 ft | 0 kts | 316° |
| 2026-05-07 18:17 | 60.33079 | 24.94566 | 187 ft | 5 kts | 316° |
| 2026-05-07 18:18 | 60.33117 | 24.94477 | 187 ft | 10 kts | 289° |
| 2026-05-07 18:18 | 60.33093 | 24.94341 | 187 ft | 9 kts | 227° |
| 2026-05-07 18:18 | 60.33081 | 24.94315 | 187 ft | 0 kts | 227° |
| 2026-05-07 18:19 | 60.33080 | 24.94313 | 187 ft | 0 kts | 227° |
| 2026-05-07 18:19 | 60.33073 | 24.94297 | 187 ft | 2 kts | 227° |
| 2026-05-07 18:19 | 60.33045 | 24.94238 | 187 ft | 20 kts | 227° |
| 2026-05-07 18:19 | 60.32749 | 24.93588 | 188 ft | 101 kts | 227° |
| 2026-05-07 18:20 | 60.32115 | 24.92195 | 266 ft | 156 kts | 225° |
| 2026-05-07 18:20 | 60.31358 | 24.90555 | 911 ft | 163 kts | 227° |
| 2026-05-07 18:20 | 60.30571 | 24.88852 | 1730 ft | 166 kts | 232° |
| 2026-05-07 18:20 | 60.29885 | 24.86982 | 2475 ft | 172 kts | 243° |
| 2026-05-07 18:21 | 60.29584 | 24.84613 | 3047 ft | 182 kts | 277° |
| 2026-05-07 18:21 | 60.29849 | 24.82017 | 3603 ft | 197 kts | 287° |
| 2026-05-07 18:21 | 60.30212 | 24.79155 | 4068 ft | 222 kts | 279° |
| 2026-05-07 18:21 | 60.30034 | 24.75933 | 4678 ft | 245 kts | 255° |
| 2026-05-07 18:22 | 60.29411 | 24.72625 | 5344 ft | 262 kts | 250° |
| 2026-05-07 18:22 | 60.28941 | 24.70356 | 5865 ft | 269 kts | 250° |
| 2026-05-07 18:22 | 60.27966 | 24.65708 | 7152 ft | 274 kts | 250° |
| 2026-05-07 18:22 | 60.27234 | 24.62192 | 8200 ft | 274 kts | 250° |
| 2026-05-07 18:23 | 60.26506 | 24.58669 | 9194 ft | 276 kts | 250° |
| 2026-05-07 18:23 | 60.25779 | 24.55133 | 10214 ft | 276 kts | 250° |
| 2026-05-07 18:23 | 60.25048 | 24.51578 | 11202 ft | 277 kts | 250° |
| 2026-05-07 18:23 | 60.24270 | 24.48036 | 12059 ft | 282 kts | 247° |
| 2026-05-07 18:24 | 60.23336 | 24.44432 | 12699 ft | 296 kts | 245° |
| 2026-05-07 18:24 | 60.22349 | 24.40759 | 13542 ft | 299 kts | 245° |
| 2026-05-07 18:24 | 60.21358 | 24.37087 | 14466 ft | 299 kts | 246° |
| 2026-05-07 18:24 | 60.20370 | 24.33425 | 15358 ft | 300 kts | 245° |
| 2026-05-07 18:25 | 60.19378 | 24.29744 | 16207 ft | 301 kts | 245° |
| 2026-05-07 18:25 | 60.18381 | 24.26044 | 17008 ft | 304 kts | 245° |
| 2026-05-07 18:25 | 60.17368 | 24.22293 | 17700 ft | 309 kts | 245° |
| 2026-05-07 18:25 | 60.16343 | 24.18508 | 18441 ft | 311 kts | 246° |
| 2026-05-07 18:26 | 60.15302 | 24.14676 | 19174 ft | 314 kts | 246° |
| 2026-05-07 18:26 | 60.14253 | 24.10818 | 19894 ft | 315 kts | 245° |
| 2026-05-07 18:26 | 60.13203 | 24.06965 | 20579 ft | 317 kts | 245° |
| 2026-05-07 18:26 | 60.12143 | 24.03085 | 21231 ft | 319 kts | 245° |
| 2026-05-07 18:27 | 60.11073 | 23.99174 | 21879 ft | 322 kts | 245° |
| 2026-05-07 18:27 | 60.09992 | 23.95238 | 22505 ft | 324 kts | 245° |
| 2026-05-07 18:27 | 60.08909 | 23.91295 | 23145 ft | 325 kts | 245° |
| 2026-05-07 18:27 | 60.07835 | 23.87330 | 23755 ft | 325 kts | 245° |
| 2026-05-07 18:28 | 60.06783 | 23.83302 | 24346 ft | 327 kts | 246° |
| 2026-05-07 18:28 | 60.05731 | 23.79260 | 24912 ft | 329 kts | 246° |
| 2026-05-07 18:28 | 60.04676 | 23.75210 | 25411 ft | 332 kts | 246° |
| 2026-05-07 18:28 | 60.03591 | 23.71065 | 25882 ft | 336 kts | 246° |
| 2026-05-07 18:29 | 60.02497 | 23.66897 | 26368 ft | 340 kts | 246° |
| 2026-05-07 18:29 | 60.01394 | 23.62710 | 26844 ft | 342 kts | 245° |
| 2026-05-07 18:29 | 60.00279 | 23.58479 | 27293 ft | 346 kts | 246° |
| 2026-05-07 18:29 | 59.99141 | 23.54184 | 27716 ft | 349 kts | 246° |
| 2026-05-07 18:30 | 59.98001 | 23.49858 | 28172 ft | 352 kts | 246° |
| 2026-05-07 18:30 | 59.96856 | 23.45522 | 28594 ft | 354 kts | 246° |
| 2026-05-07 18:30 | 59.95699 | 23.41161 | 28984 ft | 358 kts | 245° |
| 2026-05-07 18:30 | 59.94535 | 23.36785 | 29381 ft | 361 kts | 246° |
| 2026-05-07 18:31 | 59.93351 | 23.32342 | 29776 ft | 363 kts | 245° |
| 2026-05-07 18:31 | 59.92165 | 23.27892 | 30158 ft | 366 kts | 245° |
| 2026-05-07 18:31 | 59.90966 | 23.23401 | 30549 ft | 368 kts | 245° |
| 2026-05-07 18:31 | 59.89739 | 23.18828 | 30906 ft | 371 kts | 245° |
| 2026-05-07 18:32 | 59.88510 | 23.14298 | 31228 ft | 374 kts | 245° |
| 2026-05-07 18:32 | 59.87269 | 23.09740 | 31548 ft | 377 kts | 245° |
| 2026-05-07 18:32 | 59.86021 | 23.05158 | 31858 ft | 379 kts | 244° |
| 2026-05-07 18:32 | 59.84760 | 23.00521 | 32096 ft | 384 kts | 244° |
| 2026-05-07 18:33 | 59.83467 | 22.95770 | 32228 ft | 390 kts | 244° |
| 2026-05-07 18:33 | 59.82160 | 22.90975 | 32358 ft | 397 kts | 244° |
| 2026-05-07 18:33 | 59.80836 | 22.86121 | 32472 ft | 402 kts | 244° |
| 2026-05-07 18:33 | 59.79487 | 22.81191 | 32581 ft | 407 kts | 244° |
| 2026-05-07 18:34 | 59.78125 | 22.76221 | 32684 ft | 412 kts | 244° |
| 2026-05-07 18:34 | 59.76734 | 22.71157 | 32839 ft | 415 kts | 244° |
| 2026-05-07 18:34 | 59.75354 | 22.66138 | 33067 ft | 415 kts | 244° |
| 2026-05-07 18:34 | 59.73966 | 22.61107 | 33310 ft | 415 kts | 244° |
| 2026-05-07 18:35 | 59.72582 | 22.56095 | 33527 ft | 415 kts | 244° |
| 2026-05-07 18:35 | 59.71193 | 22.51078 | 33723 ft | 416 kts | 244° |
| 2026-05-07 18:35 | 59.69805 | 22.46074 | 33916 ft | 416 kts | 244° |
| 2026-05-07 18:35 | 59.68407 | 22.41049 | 34113 ft | 416 kts | 244° |
| 2026-05-07 18:36 | 59.67010 | 22.36031 | 34307 ft | 417 kts | 244° |
| 2026-05-07 18:36 | 59.65605 | 22.31000 | 34507 ft | 417 kts | 243° |
| 2026-05-07 18:36 | 59.64203 | 22.25976 | 34700 ft | 417 kts | 243° |
| 2026-05-07 18:36 | 59.62800 | 22.20969 | 34883 ft | 418 kts | 243° |
| 2026-05-07 18:37 | 59.61394 | 22.15957 | 35066 ft | 418 kts | 243° |
| 2026-05-07 18:37 | 59.59971 | 22.10903 | 35257 ft | 419 kts | 243° |
| 2026-05-07 18:37 | 59.58554 | 22.05886 | 35437 ft | 419 kts | 243° |
| 2026-05-07 18:37 | 59.57137 | 22.00878 | 35617 ft | 419 kts | 243° |
| 2026-05-07 18:38 | 59.55712 | 21.95853 | 35802 ft | 419 kts | 243° |
| 2026-05-07 18:38 | 59.54286 | 21.90836 | 35968 ft | 419 kts | 243° |
| 2026-05-07 18:38 | 59.52845 | 21.85780 | 36148 ft | 419 kts | 243° |
| 2026-05-07 18:38 | 59.51895 | 21.82448 | 36277 ft | 419 kts | 243° |
| 2026-05-07 18:39 | 59.50568 | 21.77805 | 36423 ft | 419 kts | 243° |
| 2026-05-07 18:39 | 59.49131 | 21.72792 | 36566 ft | 420 kts | 243° |
| 2026-05-07 18:39 | 59.47697 | 21.67796 | 36736 ft | 420 kts | 243° |
| 2026-05-07 18:39 | 59.46255 | 21.62781 | 36886 ft | 420 kts | 243° |
| 2026-05-07 18:40 | 59.44808 | 21.57766 | 37014 ft | 421 kts | 243° |
| 2026-05-07 18:40 | 59.43353 | 21.52733 | 37169 ft | 421 kts | 243° |
| 2026-05-07 18:40 | 59.41911 | 21.47754 | 37302 ft | 421 kts | 243° |
| 2026-05-07 18:40 | 59.40464 | 21.42767 | 37434 ft | 421 kts | 243° |
| 2026-05-07 18:41 | 59.39009 | 21.37759 | 37579 ft | 421 kts | 242° |
| 2026-05-07 18:41 | 59.37546 | 21.32739 | 37695 ft | 422 kts | 242° |
| 2026-05-07 18:41 | 59.36088 | 21.27738 | 37840 ft | 422 kts | 242° |
| 2026-05-07 18:41 | 59.34634 | 21.22759 | 37980 ft | 422 kts | 242° |
| 2026-05-07 18:42 | 59.33164 | 21.17742 | 38098 ft | 422 kts | 242° |
| 2026-05-07 18:42 | 59.28929 | 21.03365 | 38154 ft | 423 kts | 241° |
| 2026-05-07 18:43 | 59.25975 | 20.93395 | 38157 ft | 423 kts | 242° |
| 2026-05-07 18:43 | 59.23022 | 20.83476 | 38158 ft | 423 kts | 242° |
| 2026-05-07 18:44 | 59.20050 | 20.73542 | 38145 ft | 424 kts | 241° |
| 2026-05-07 18:44 | 59.16772 | 20.63978 | 38161 ft | 426 kts | 236° |
| 2026-05-07 18:45 | 59.13103 | 20.54839 | 38151 ft | 428 kts | 234° |
| 2026-05-07 18:45 | 59.09423 | 20.45718 | 38121 ft | 429 kts | 234° |
| 2026-05-07 18:46 | 59.05749 | 20.36656 | 38147 ft | 428 kts | 234° |
| 2026-05-07 18:46 | 59.02031 | 20.27515 | 38151 ft | 429 kts | 234° |
| 2026-05-07 18:47 | 58.98318 | 20.18422 | 38150 ft | 429 kts | 233° |
| 2026-05-07 18:47 | 58.94610 | 20.09387 | 38144 ft | 429 kts | 233° |
| 2026-05-07 18:48 | 58.90871 | 20.00321 | 38146 ft | 430 kts | 233° |
| 2026-05-07 18:48 | 58.87128 | 19.91327 | 38151 ft | 430 kts | 233° |
| 2026-05-07 18:49 | 58.83362 | 19.82332 | 38155 ft | 430 kts | 233° |
| 2026-05-07 18:49 | 58.79609 | 19.73367 | 38160 ft | 431 kts | 233° |
| 2026-05-07 18:50 | 58.75862 | 19.64434 | 38142 ft | 431 kts | 234° |
| 2026-05-07 18:50 | 58.72108 | 19.55510 | 38155 ft | 430 kts | 233° |
| 2026-05-07 18:51 | 58.68346 | 19.46601 | 38150 ft | 430 kts | 233° |
| 2026-05-07 18:51 | 58.64581 | 19.37714 | 38143 ft | 431 kts | 233° |
| 2026-05-07 18:52 | 58.61430 | 19.30300 | 38160 ft | 431 kts | 233° |